createdAt,value
2023-02-27T00:00:56.042Z,102439.41
2023-02-27T00:03:25.721Z,102443.63
2023-02-27T00:05:53.626Z,102442.03
2023-02-27T00:08:21.557Z,102437.59
2023-02-27T00:10:50.570Z,102437.66
2023-02-27T00:13:18.486Z,102443.94
2023-02-27T00:15:47.319Z,102443.84
2023-02-27T00:18:15.304Z,102445.69
2023-02-27T00:20:44.543Z,102436.88
2023-02-27T00:23:12.429Z,102431.69
2023-02-27T00:25:40.360Z,102440.47
2023-02-27T00:28:08.513Z,102432.47
2023-02-27T00:30:36.452Z,102439.41
2023-02-27T00:33:05.664Z,102435.91
2023-02-27T00:35:34.588Z,102435.22
2023-02-27T00:38:04.396Z,102438.53
2023-02-27T00:40:32.367Z,102441.50
2023-02-27T00:43:00.156Z,102438.72
2023-02-27T00:45:30.678Z,102444.03
2023-02-27T00:47:58.507Z,102440.47
2023-02-27T00:50:26.419Z,102440.47
2023-02-27T00:52:54.306Z,102441.53
2023-02-27T00:55:25.788Z,102443.31
2023-02-27T00:57:54.868Z,102438.88
2023-02-27T01:00:23.026Z,102443.28
2023-02-27T01:02:51.021Z,102432.00
2023-02-27T01:05:19.239Z,102434.69
2023-02-27T01:07:47.113Z,102430.16
2023-02-27T01:10:15.133Z,102433.28
2023-02-27T01:12:44.373Z,102427.84
2023-02-27T01:15:13.028Z,102434.81
2023-02-27T01:17:40.930Z,102428.56
2023-02-27T01:20:12.382Z,102427.81
2023-02-27T01:22:40.381Z,102431.22
2023-02-27T01:25:08.980Z,102431.22
2023-02-27T01:27:40.867Z,102421.63
2023-02-27T01:30:12.637Z,102422.72
2023-02-27T01:32:40.588Z,102425.19
2023-02-27T01:35:09.259Z,102418.09
2023-02-27T01:37:37.242Z,102419.88
2023-02-27T01:40:08.381Z,102432.09
2023-02-27T01:42:36.718Z,102418.91
2023-02-27T01:45:26.379Z,102425.41
2023-02-27T01:48:01.008Z,102422.53
2023-02-27T01:50:29.024Z,102423.41
2023-02-27T01:52:59.854Z,102424.44
2023-02-27T01:55:33.219Z,102415.66
2023-02-27T01:58:01.744Z,102423.38
2023-02-27T02:00:32.134Z,102426.97
2023-02-27T02:03:12.498Z,102418.34
2023-02-27T02:05:42.735Z,102422.59
2023-02-27T02:08:11.870Z,102423.44
2023-02-27T02:10:40.983Z,102426.03
2023-02-27T02:13:09.498Z,102418.19
2023-02-27T02:15:43.951Z,102420.91
2023-02-27T02:18:22.818Z,102419.19
2023-02-27T02:21:27.698Z,102426.22
2023-02-27T02:24:42.350Z,102421.19
2023-02-27T02:27:23.230Z,102436.19
2023-02-27T02:30:27.111Z,102418.47
2023-02-27T02:33:34.332Z,102429.81
2023-02-27T02:36:42.963Z,102423.66
2023-02-27T02:39:34.915Z,102429.81
2023-02-27T02:42:12.202Z,102433.44
2023-02-27T02:44:48.093Z,102433.38
2023-02-27T02:47:25.893Z,102436.09
2023-02-27T02:49:58.950Z,102441.56
2023-02-27T02:52:35.356Z,102440.56
2023-02-27T02:55:11.403Z,102444.00
2023-02-27T02:57:44.702Z,102449.25
2023-02-27T03:00:17.948Z,102445.75
2023-02-27T03:02:50.790Z,102447.50
2023-02-27T03:05:26.429Z,102451.94
2023-02-27T03:07:59.825Z,102453.69
2023-02-27T03:10:33.994Z,102465.19
2023-02-27T03:13:09.379Z,102458.09
2023-02-27T03:15:42.507Z,102462.53
2023-02-27T03:18:18.597Z,102461.59
2023-02-27T03:20:50.235Z,102467.78
2023-02-27T03:23:23.308Z,102468.72
2023-02-27T03:25:52.669Z,102467.72
2023-02-27T03:28:26.588Z,102467.81
2023-02-27T03:31:07.374Z,102474.88
2023-02-27T03:33:42.080Z,102469.66
2023-02-27T03:36:16.771Z,102484.69
2023-02-27T03:38:50.435Z,102477.56
2023-02-27T03:41:30.004Z,102478.75
2023-02-27T03:44:24.262Z,102487.19
2023-02-27T03:46:52.639Z,102481.00
2023-02-27T03:49:21.151Z,102484.56
2023-02-27T03:51:50.481Z,102490.72
2023-02-27T03:54:22.605Z,102490.69
2023-02-27T03:56:56.804Z,102496.09
2023-02-27T03:59:25.858Z,102491.59
2023-02-27T04:01:56.237Z,102497.75
2023-02-27T04:04:25.334Z,102496.03
2023-02-27T04:07:23.711Z,102496.88
2023-02-27T04:10:15.767Z,102497.00
2023-02-27T04:13:01.943Z,102500.78
2023-02-27T04:15:39.815Z,102499.78
2023-02-27T04:18:20.292Z,102508.47
2023-02-27T04:20:56.153Z,102508.75
2023-02-27T04:23:33.992Z,102515.59
2023-02-27T04:26:15.393Z,102512.81
2023-02-27T04:28:49.962Z,102503.13
2023-02-27T04:31:24.633Z,102507.53
2023-02-27T04:34:00.156Z,102510.06
2023-02-27T04:36:33.646Z,102512.78
2023-02-27T04:39:06.252Z,102521.59
2023-02-27T04:41:40.115Z,102505.78
2023-02-27T04:44:11.891Z,102518.06
2023-02-27T04:46:43.395Z,102525.13
2023-02-27T04:49:16.240Z,102526.00
2023-02-27T04:51:51.879Z,102522.88
2023-02-27T04:54:26.007Z,102520.13
2023-02-27T04:56:57.700Z,102526.22
2023-02-27T04:59:31.838Z,102523.59
2023-02-27T05:02:04.008Z,102515.72
2023-02-27T05:04:41.164Z,102519.28
2023-02-27T05:07:14.445Z,102520.13
2023-02-27T05:09:46.409Z,102513.13
2023-02-27T05:12:20.305Z,102526.25
2023-02-27T05:14:55.437Z,102532.38
2023-02-27T05:17:26.850Z,102522.97
2023-02-27T05:19:54.821Z,102526.28
2023-02-27T05:22:32.111Z,102529.81
2023-02-27T05:25:07.366Z,102538.66
2023-02-27T05:27:41.150Z,102529.81
2023-02-27T05:30:21.762Z,102530.75
2023-02-27T05:32:54.573Z,102529.91
2023-02-27T05:35:29.428Z,102531.66
2023-02-27T05:38:05.962Z,102532.50
2023-02-27T05:40:38.293Z,102538.72
2023-02-27T05:43:11.352Z,102539.59
2023-02-27T05:45:41.927Z,102541.22
2023-02-27T05:48:17.216Z,102553.53
2023-02-27T05:50:50.106Z,102556.34
2023-02-27T05:53:21.192Z,102554.47
2023-02-27T05:55:52.255Z,102543.88
2023-02-27T05:58:23.688Z,102547.44
2023-02-27T06:00:55.810Z,102553.53
2023-02-27T06:03:24.203Z,102566.69
2023-02-27T06:05:54.316Z,102568.47
2023-02-27T06:08:22.869Z,102565.81
2023-02-27T06:10:50.830Z,102572.16
2023-02-27T06:13:18.921Z,102573.81
2023-02-27T06:15:47.028Z,102584.53
2023-02-27T06:18:17.866Z,102586.00
2023-02-27T06:20:46.632Z,102580.72
2023-02-27T06:23:14.945Z,102582.44
2023-02-27T06:25:43.219Z,102580.69
2023-02-27T06:28:12.249Z,102593.78
2023-02-27T06:30:40.248Z,102592.16
2023-02-27T06:33:08.102Z,102588.84
2023-02-27T06:35:37.349Z,102592.13
2023-02-27T06:38:05.597Z,102589.25
2023-02-27T06:40:33.604Z,102589.22
2023-02-27T06:43:01.437Z,102597.91
2023-02-27T06:45:29.360Z,102590.69
2023-02-27T06:47:57.268Z,102601.94
2023-02-27T06:50:25.194Z,102594.84
2023-02-27T06:52:54.433Z,102598.28
2023-02-27T06:55:22.757Z,102590.47
2023-02-27T06:57:50.789Z,102592.88
2023-02-27T07:00:19.736Z,102601.75
2023-02-27T07:02:47.627Z,102612.31
2023-02-27T07:05:15.543Z,102598.22
2023-02-27T07:07:43.714Z,102613.91
2023-02-27T07:10:15.016Z,102626.94
2023-02-27T07:12:43.260Z,102632.25
2023-02-27T07:15:12.035Z,102640.97
2023-02-27T07:17:40.023Z,102649.09
2023-02-27T07:20:10.581Z,102646.00
2023-02-27T07:22:38.683Z,102647.00
2023-02-27T07:25:07.557Z,102645.00
2023-02-27T07:27:36.942Z,102659.66
2023-02-27T07:30:05.619Z,102658.69
2023-02-27T07:32:33.567Z,102649.75
2023-02-27T07:35:01.849Z,102660.94
2023-02-27T07:37:29.647Z,102663.66
2023-02-27T07:39:57.450Z,102659.34
2023-02-27T07:42:25.295Z,102646.72
2023-02-27T07:44:54.530Z,102651.34
2023-02-27T07:47:22.599Z,102654.47
2023-02-27T07:49:50.477Z,102645.34
2023-02-27T07:52:18.351Z,102659.63
2023-02-27T07:54:46.177Z,102660.59
2023-02-27T07:57:14.458Z,102665.88
2023-02-27T07:59:42.410Z,102660.16
2023-02-27T08:02:13.538Z,102657.41
2023-02-27T08:04:41.522Z,102657.41
2023-02-27T08:07:09.404Z,102660.13
2023-02-27T08:09:37.554Z,102653.75
2023-02-27T08:12:05.828Z,102656.19
2023-02-27T08:14:33.744Z,102657.06
2023-02-27T08:17:01.712Z,102657.81
2023-02-27T08:19:30.913Z,102661.44
2023-02-27T08:21:58.767Z,102664.94
2023-02-27T08:24:26.698Z,102672.91
2023-02-27T08:26:54.590Z,102663.47
2023-02-27T08:29:22.633Z,102652.69
2023-02-27T08:31:50.888Z,102668.56
2023-02-27T08:34:19.086Z,102671.34
2023-02-27T08:36:48.340Z,102660.31
2023-02-27T08:39:16.226Z,102656.56
2023-02-27T08:41:44.154Z,102671.22
2023-02-27T08:44:12.946Z,102671.84
2023-02-27T08:46:40.889Z,102669.41
2023-02-27T08:49:08.833Z,102662.47
2023-02-27T08:51:36.666Z,102666.19
2023-02-27T08:54:06.332Z,102655.03
2023-02-27T08:56:35.320Z,102661.09
2023-02-27T08:59:03.502Z,102669.59
2023-02-27T09:01:34.485Z,102658.72
2023-02-27T09:04:03.439Z,102662.50
2023-02-27T09:06:32.226Z,102655.78
2023-02-27T09:09:00.300Z,102659.03
2023-02-27T09:11:30.129Z,102659.44
2023-02-27T09:13:58.862Z,102657.44
2023-02-27T09:16:27.278Z,102661.69
2023-02-27T09:18:55.755Z,102660.75
2023-02-27T09:21:24.747Z,102662.81
2023-02-27T09:23:52.733Z,102666.41
2023-02-27T09:26:21.921Z,102674.00
2023-02-27T09:28:55.821Z,102674.72
2023-02-27T09:31:23.774Z,102684.19
2023-02-27T09:33:51.759Z,102675.50
2023-02-27T09:36:19.811Z,102674.13
2023-02-27T09:38:47.674Z,102675.09
2023-02-27T09:41:35.176Z,102681.28
2023-02-27T09:44:04.838Z,102679.78
2023-02-27T09:46:32.864Z,102683.44
2023-02-27T09:49:04.804Z,102684.63
2023-02-27T09:51:32.716Z,102681.03
2023-02-27T09:54:02.483Z,102679.00
2023-02-27T09:56:35.584Z,102686.09
2023-02-27T09:59:14.847Z,102681.53
2023-02-27T10:01:49.217Z,102680.38
2023-02-27T10:04:37.630Z,102685.69
2023-02-27T10:07:16.585Z,102690.66
2023-02-27T10:10:01.200Z,102692.91
2023-02-27T10:12:46.591Z,102692.81
2023-02-27T10:15:21.966Z,102694.25
2023-02-27T10:17:53.480Z,102697.28
2023-02-27T10:20:28.006Z,102693.28
2023-02-27T10:22:59.080Z,102682.34
2023-02-27T10:25:32.154Z,102685.25
2023-02-27T10:28:12.267Z,102688.09
2023-02-27T10:30:42.660Z,102691.38
2023-02-27T10:33:17.301Z,102685.34
2023-02-27T10:35:46.876Z,102676.78
2023-02-27T10:38:19.222Z,102682.47
2023-02-27T10:40:49.104Z,102676.34
2023-02-27T10:43:19.251Z,102685.53
2023-02-27T10:45:48.804Z,102685.75
2023-02-27T10:48:17.789Z,102693.56
2023-02-27T10:50:50.538Z,102693.84
2023-02-27T10:53:21.370Z,102699.13
2023-02-27T10:55:59.936Z,102692.38
2023-02-27T10:58:34.415Z,102701.88
2023-02-27T11:01:06.219Z,102685.44
2023-02-27T11:03:39.931Z,102686.41
2023-02-27T11:06:13.879Z,102689.94
2023-02-27T11:08:41.772Z,102697.22
2023-02-27T11:11:11.810Z,102686.66
2023-02-27T11:13:42.499Z,102688.31
2023-02-27T11:16:14.909Z,102668.88
2023-02-27T11:18:44.493Z,102673.91
2023-02-27T11:21:20.138Z,102672.56
2023-02-27T11:23:53.959Z,102666.41
2023-02-27T11:26:25.653Z,102659.72
2023-02-27T11:29:15.896Z,102663.53
2023-02-27T11:31:53.017Z,102659.22
2023-02-27T11:34:25.561Z,102658.91
2023-02-27T11:36:56.893Z,102661.56
2023-02-27T11:39:32.421Z,102665.34
2023-02-27T11:42:09.876Z,102668.16
2023-02-27T11:44:49.706Z,102661.69
2023-02-27T11:47:24.349Z,102662.44
2023-02-27T11:50:34.281Z,102653.19
2023-02-27T11:53:16.787Z,102659.22
2023-02-27T11:55:45.466Z,102656.94
2023-02-27T11:58:18.797Z,102651.69
2023-02-27T12:00:50.071Z,102652.88
2023-02-27T12:03:26.330Z,102666.97
2023-02-27T12:05:58.221Z,102662.56
2023-02-27T12:08:33.341Z,102664.69
2023-02-27T12:11:13.600Z,102676.13
2023-02-27T12:13:48.055Z,102662.19
2023-02-27T12:16:22.329Z,102665.19
2023-02-27T12:18:56.562Z,102668.34
2023-02-27T12:21:28.268Z,102663.75
2023-02-27T12:24:01.612Z,102663.16
2023-02-27T12:26:32.543Z,102661.78
2023-02-27T12:29:06.125Z,102662.44
2023-02-27T12:31:48.594Z,102659.31
2023-02-27T12:34:29.498Z,102665.09
2023-02-27T12:37:01.743Z,102658.88
2023-02-27T12:39:30.367Z,102657.59
2023-02-27T12:42:31.239Z,102653.38
2023-02-27T12:45:43.927Z,102666.56
2023-02-27T12:48:23.216Z,102673.34
2023-02-27T12:50:58.785Z,102664.94
2023-02-27T12:53:38.664Z,102655.59
2023-02-27T12:56:14.543Z,102662.75
2023-02-27T12:58:56.470Z,102661.69
2023-02-27T13:01:44.122Z,102667.34
2023-02-27T13:04:24.938Z,102655.06
2023-02-27T13:07:02.175Z,102662.50
2023-02-27T13:09:38.612Z,102665.50
2023-02-27T13:12:17.280Z,102665.09
2023-02-27T13:14:50.170Z,102665.19
2023-02-27T13:17:24.039Z,102657.56
2023-02-27T13:19:56.094Z,102662.66
2023-02-27T13:22:33.715Z,102653.66
2023-02-27T13:25:08.442Z,102669.69
2023-02-27T13:27:39.861Z,102664.50
2023-02-27T13:30:24.964Z,102663.72
2023-02-27T13:33:01.040Z,102664.88
2023-02-27T13:35:36.248Z,102652.53
2023-02-27T13:38:33.324Z,102654.22
2023-02-27T13:41:38.174Z,102662.88
2023-02-27T13:44:49.074Z,102665.97
2023-02-27T13:47:47.994Z,102658.53
2023-02-27T13:50:50.316Z,102649.19
2023-02-27T13:53:24.602Z,102653.66
2023-02-27T13:55:56.512Z,102655.56
2023-02-27T13:58:25.703Z,102653.53
2023-02-27T14:00:59.897Z,102661.13
2023-02-27T14:03:32.063Z,102653.72
2023-02-27T14:06:06.132Z,102661.06
2023-02-27T14:08:48.014Z,102658.44
2023-02-27T14:11:21.794Z,102656.16
2023-02-27T14:14:00.960Z,102661.25
2023-02-27T14:17:08.304Z,102655.50
2023-02-27T14:19:59.974Z,102658.25
2023-02-27T14:22:43.982Z,102661.69
2023-02-27T14:25:35.485Z,102656.38
2023-02-27T14:28:05.158Z,102663.53
2023-02-27T14:30:41.671Z,102668.69
2023-02-27T14:33:24.063Z,102660.16
2023-02-27T14:36:01.277Z,102670.44
2023-02-27T14:38:30.911Z,102670.19
2023-02-27T14:41:12.272Z,102679.56
2023-02-27T14:43:42.029Z,102681.25
2023-02-27T14:46:17.787Z,102677.75
2023-02-27T14:48:46.641Z,102680.19
2023-02-27T14:51:16.931Z,102683.75
2023-02-27T14:53:44.872Z,102689.06
2023-02-27T14:56:19.936Z,102692.31
2023-02-27T14:59:03.380Z,102690.72
2023-02-27T15:01:36.996Z,102694.53
2023-02-27T15:04:06.271Z,102689.34
2023-02-27T15:06:39.184Z,102684.50
2023-02-27T15:09:07.804Z,102693.00
2023-02-27T15:11:46.520Z,102696.69
2023-02-27T15:14:22.176Z,102689.44
2023-02-27T15:16:55.743Z,102691.09
2023-02-27T15:19:26.281Z,102692.53
2023-02-27T15:21:55.538Z,102705.28
2023-02-27T15:24:27.719Z,102700.25
2023-02-27T15:26:59.893Z,102703.75
2023-02-27T15:29:34.102Z,102705.41
2023-02-27T15:32:03.109Z,102702.41
2023-02-27T15:34:31.388Z,102693.09
2023-02-27T15:37:00.868Z,102698.19
2023-02-27T15:39:31.249Z,102706.81
2023-02-27T15:42:03.803Z,102709.47
2023-02-27T15:44:37.169Z,102708.53
2023-02-27T15:47:06.093Z,102704.16
2023-02-27T15:49:34.246Z,102712.97
2023-02-27T15:52:05.544Z,102715.25
2023-02-27T15:54:34.818Z,102716.97
2023-02-27T15:57:06.707Z,102711.44
2023-02-27T15:59:37.629Z,102719.94
2023-02-27T16:02:07.152Z,102729.25
2023-02-27T16:04:35.753Z,102720.75
2023-02-27T16:07:08.238Z,102735.41
2023-02-27T16:09:38.552Z,102724.84
2023-02-27T16:12:23.144Z,102733.81
2023-02-27T16:14:53.774Z,102727.84
2023-02-27T16:17:31.691Z,102729.31
2023-02-27T16:20:02.863Z,102740.53
2023-02-27T16:22:31.520Z,102734.63
2023-02-27T16:25:09.454Z,102732.78
2023-02-27T16:27:40.353Z,102734.94
2023-02-27T16:30:12.119Z,102738.91
2023-02-27T16:32:43.992Z,102736.06
2023-02-27T16:35:19.063Z,102734.72
2023-02-27T16:37:47.986Z,102737.66
2023-02-27T16:40:19.397Z,102738.59
2023-02-27T16:42:48.729Z,102743.53
2023-02-27T16:45:18.631Z,102740.25
2023-02-27T16:47:49.977Z,102742.81
2023-02-27T16:50:23.052Z,102747.09
2023-02-27T16:52:50.916Z,102743.53
2023-02-27T16:55:18.876Z,102745.28
2023-02-27T16:57:48.151Z,102744.53
2023-02-27T17:00:18.659Z,102748.97
2023-02-27T17:02:48.291Z,102752.25
2023-02-27T17:05:16.788Z,102751.41
2023-02-27T17:07:45.720Z,102758.78
2023-02-27T17:10:16.419Z,102755.41
2023-02-27T17:12:46.840Z,102754.19
2023-02-27T17:15:17.025Z,102752.63
2023-02-27T17:17:45.502Z,102766.47
2023-02-27T17:20:15.333Z,102765.19
2023-02-27T17:22:44.653Z,102759.69
2023-02-27T17:25:13.500Z,102768.72
2023-02-27T17:27:43.656Z,102773.69
2023-02-27T17:30:13.084Z,102770.16
2023-02-27T17:32:42.611Z,102763.09
2023-02-27T17:35:11.113Z,102764.06
2023-02-27T17:37:39.502Z,102775.31
2023-02-27T17:40:08.152Z,102777.25
2023-02-27T17:42:37.204Z,102777.75
2023-02-27T17:45:06.385Z,102778.59
2023-02-27T17:47:34.719Z,102773.81
2023-02-27T17:50:04.122Z,102778.41
2023-02-27T17:52:32.075Z,102784.41
2023-02-27T17:54:59.918Z,102787.19
2023-02-27T17:57:27.754Z,102780.81
2023-02-27T17:59:55.668Z,102782.22
2023-02-27T18:02:23.604Z,102787.38
2023-02-27T18:04:51.517Z,102783.09
2023-02-27T18:07:20.733Z,102786.75
2023-02-27T18:09:48.643Z,102787.88
2023-02-27T18:12:16.600Z,102780.56
2023-02-27T18:14:44.480Z,102781.00
2023-02-27T18:17:13.071Z,102775.75
2023-02-27T18:19:42.310Z,102778.34
2023-02-27T18:22:10.194Z,102770.09
2023-02-27T18:24:39.477Z,102777.34
2023-02-27T18:27:07.419Z,102782.56
2023-02-27T18:29:36.727Z,102779.13
2023-02-27T18:32:04.707Z,102786.03
2023-02-27T18:34:32.607Z,102782.09
2023-02-27T18:37:00.484Z,102787.06
2023-02-27T18:39:28.386Z,102793.09
2023-02-27T18:41:58.409Z,102791.03
2023-02-27T18:44:26.497Z,102795.19
2023-02-27T18:46:55.110Z,102792.19
2023-02-27T18:49:23.088Z,102786.75
2023-02-27T18:51:50.992Z,102800.00
2023-02-27T18:54:18.896Z,102802.56
2023-02-27T18:56:48.526Z,102795.75
2023-02-27T18:59:17.799Z,102811.63
2023-02-27T19:01:45.654Z,102803.06
2023-02-27T19:04:13.655Z,102806.00
2023-02-27T19:06:43.116Z,102807.06
2023-02-27T19:09:12.625Z,102813.22
2023-02-27T19:11:40.881Z,102813.16
2023-02-27T19:14:11.888Z,102814.34
2023-02-27T19:16:41.668Z,102822.78
2023-02-27T19:19:09.945Z,102821.41
2023-02-27T19:21:38.411Z,102815.16
2023-02-27T19:24:07.645Z,102814.97
2023-02-27T19:26:35.812Z,102818.75
2023-02-27T19:29:03.854Z,102811.84
2023-02-27T19:31:32.683Z,102817.06
2023-02-27T19:34:02.129Z,102813.44
2023-02-27T19:36:31.387Z,102812.47
2023-02-27T19:38:59.977Z,102821.25
2023-02-27T19:41:28.671Z,102821.94
2023-02-27T19:43:57.039Z,102823.94
2023-02-27T19:46:27.930Z,102830.25
2023-02-27T19:48:59.161Z,102833.03
2023-02-27T19:51:28.807Z,102826.22
2023-02-27T19:53:56.911Z,102826.69
2023-02-27T19:56:27.350Z,102828.09
2023-02-27T19:58:55.562Z,102829.25
2023-02-27T20:01:26.393Z,102822.72
2023-02-27T20:03:55.801Z,102820.25
2023-02-27T20:06:25.955Z,102828.16
2023-02-27T20:08:55.594Z,102824.63
2023-02-27T20:11:23.614Z,102828.25
2023-02-27T20:13:52.794Z,102824.78
2023-02-27T20:16:23.888Z,102831.88
2023-02-27T20:18:51.900Z,102832.00
2023-02-27T20:21:23.241Z,102832.16
2023-02-27T20:23:52.293Z,102836.78
2023-02-27T20:26:24.602Z,102835.75
2023-02-27T20:28:53.936Z,102831.59
2023-02-27T20:31:24.406Z,102829.66
2023-02-27T20:33:52.658Z,102832.94
2023-02-27T20:36:20.591Z,102834.81
2023-02-27T20:38:48.490Z,102831.19
2023-02-27T20:41:19.271Z,102826.75
2023-02-27T20:43:49.269Z,102825.84
2023-02-27T20:46:19.829Z,102828.09
2023-02-27T20:48:48.193Z,102823.81
2023-02-27T20:51:17.942Z,102824.72
2023-02-27T20:53:48.180Z,102830.25
2023-02-27T20:56:19.184Z,102838.13
2023-02-27T20:58:48.895Z,102833.03
2023-02-27T21:01:17.894Z,102839.81
2023-02-27T21:03:47.658Z,102845.94
2023-02-27T21:06:16.882Z,102842.13
2023-02-27T21:08:46.886Z,102843.13
2023-02-27T21:11:17.466Z,102852.38
2023-02-27T21:13:46.041Z,102854.00
2023-02-27T21:16:17.974Z,102850.09
2023-02-27T21:18:46.460Z,102841.88
2023-02-27T21:21:17.428Z,102845.69
2023-02-27T21:23:45.362Z,102841.63
2023-02-27T21:26:18.800Z,102838.03
2023-02-27T21:28:52.091Z,102842.13
2023-02-27T21:31:23.820Z,102845.34
2023-02-27T21:33:52.342Z,102842.41
2023-02-27T21:36:25.954Z,102836.84
2023-02-27T21:38:56.759Z,102848.06
2023-02-27T21:41:24.781Z,102835.75
2023-02-27T21:43:52.638Z,102843.63
2023-02-27T21:46:21.912Z,102847.19
2023-02-27T21:48:49.821Z,102846.19
2023-02-27T21:51:29.598Z,102850.06
2023-02-27T21:54:05.323Z,102852.28
2023-02-27T21:56:33.182Z,102852.47
2023-02-27T21:59:02.455Z,102848.84
2023-02-27T22:01:32.081Z,102851.59
2023-02-27T22:04:01.526Z,102840.22
2023-02-27T22:06:32.498Z,102843.28
2023-02-27T22:09:04.329Z,102843.09
2023-02-27T22:11:33.193Z,102850.88
2023-02-27T22:14:01.072Z,102836.28
2023-02-27T22:16:29.404Z,102843.22
2023-02-27T22:18:58.627Z,102850.72
2023-02-27T22:21:28.596Z,102857.13
2023-02-27T22:23:59.085Z,102846.91
2023-02-27T22:26:29.188Z,102858.88
2023-02-27T22:28:58.194Z,102855.88
2023-02-27T22:31:28.097Z,102846.75
2023-02-27T22:34:00.229Z,102853.91
2023-02-27T22:36:30.151Z,102851.44
2023-02-27T22:38:58.624Z,102853.09
2023-02-27T22:41:28.825Z,102855.00
2023-02-27T22:43:59.562Z,102859.81
2023-02-27T22:46:29.422Z,102860.56
2023-02-27T22:48:59.399Z,102858.91
2023-02-27T22:51:28.616Z,102855.97
2023-02-27T22:53:58.599Z,102867.66
2023-02-27T22:56:27.516Z,102868.91
2023-02-27T22:58:55.378Z,102872.28
2023-02-27T23:01:25.403Z,102877.31
2023-02-27T23:03:54.873Z,102872.72
2023-02-27T23:06:26.118Z,102872.75
2023-02-27T23:08:54.214Z,102878.94
2023-02-27T23:11:22.499Z,102878.88
2023-02-27T23:13:51.039Z,102876.94
2023-02-27T23:16:19.533Z,102881.56
2023-02-27T23:18:49.766Z,102883.28
2023-02-27T23:21:19.352Z,102877.97
2023-02-27T23:23:48.736Z,102879.69
2023-02-27T23:26:16.702Z,102885.78
2023-02-27T23:28:44.610Z,102887.22
2023-02-27T23:31:13.157Z,102887.19
2023-02-27T23:33:40.937Z,102888.69
2023-02-27T23:36:08.917Z,102893.25
2023-02-27T23:38:36.963Z,102893.38
2023-02-27T23:41:10.671Z,102894.94
2023-02-27T23:43:38.503Z,102894.94
2023-02-27T23:46:07.975Z,102897.69
2023-02-27T23:48:36.522Z,102897.78
2023-02-27T23:51:05.924Z,102891.44
2023-02-27T23:53:35.265Z,102896.00
2023-02-27T23:56:14.516Z,102902.03
2023-02-27T23:58:42.449Z,102900.44
